createdAt,value
2018-11-10T00:00:53.091Z,8.20
2018-11-10T00:03:22.563Z,8.20
2018-11-10T00:05:52.395Z,8.20
2018-11-10T00:08:21.729Z,8.30
2018-11-10T00:10:55.243Z,8.30
2018-11-10T00:13:24.689Z,8.30
2018-11-10T00:15:53.868Z,8.30
2018-11-10T00:18:24.352Z,8.30
2018-11-10T00:20:53.976Z,8.30
2018-11-10T00:23:23.218Z,8.30
2018-11-10T00:25:52.544Z,8.30
2018-11-10T00:28:22.895Z,8.30
2018-11-10T00:30:51.970Z,8.30
2018-11-10T00:33:21.297Z,8.30
2018-11-10T00:35:50.692Z,8.30
2018-11-10T00:38:19.992Z,8.30
2018-11-10T00:40:49.661Z,8.30
2018-11-10T00:43:19.011Z,8.30
2018-11-10T00:45:48.230Z,8.20
2018-11-10T00:48:17.601Z,8.20
2018-11-10T00:50:47.740Z,8.10
2018-11-10T00:53:17.176Z,8.20
2018-11-10T00:55:46.535Z,8.10
2018-11-10T00:58:16.027Z,8.10
2018-11-10T01:00:45.972Z,8.10
2018-11-10T01:03:15.562Z,8.10
2018-11-10T01:05:44.961Z,8.10
2018-11-10T01:08:14.358Z,8.10
2018-11-10T01:10:44.328Z,8.10
2018-11-10T01:13:14.128Z,8.20
2018-11-10T01:15:45.592Z,8.10
2018-11-10T01:18:15.475Z,8.10
2018-11-10T01:20:46.008Z,8.20
2018-11-10T01:23:18.483Z,8.20
2018-11-10T01:25:49.202Z,8.20
2018-11-10T01:28:18.733Z,8.20
2018-11-10T01:30:54.819Z,8.20
2018-11-10T01:33:24.672Z,8.20
2018-11-10T01:35:58.325Z,8.20
2018-11-10T01:38:31.240Z,8.10
2018-11-10T01:41:04.484Z,8.10
2018-11-10T01:43:34.516Z,8.10
2018-11-10T01:46:12.121Z,8.10
2018-11-10T01:48:44.360Z,8.20
2018-11-10T01:51:16.431Z,8.20
2018-11-10T01:53:48.173Z,8.10
2018-11-10T01:56:18.242Z,8.10
2018-11-10T01:58:49.080Z,8.20
2018-11-10T02:01:19.587Z,8.20
2018-11-10T02:03:50.190Z,8.20
2018-11-10T02:06:29.374Z,8.20
2018-11-10T02:09:07.818Z,8.20
2018-11-10T02:11:42.467Z,8.10
2018-11-10T02:14:22.243Z,8.10
2018-11-10T02:16:52.151Z,8.10
2018-11-10T02:19:22.637Z,8.10
2018-11-10T02:21:52.169Z,8.10
2018-11-10T02:24:22.021Z,8.10
2018-11-10T02:26:51.783Z,8.10
2018-11-10T02:29:25.508Z,8.10
2018-11-10T02:32:01.057Z,8.10
2018-11-10T02:34:33.046Z,8.00
2018-11-10T02:37:09.089Z,8.10
2018-11-10T02:39:42.080Z,8.10
2018-11-10T02:42:12.104Z,8.10
2018-11-10T02:44:41.919Z,8.10
2018-11-10T02:47:11.909Z,8.00
2018-11-10T02:49:41.276Z,8.00
2018-11-10T02:52:18.302Z,8.00
2018-11-10T02:54:47.742Z,8.10
2018-11-10T02:57:17.353Z,8.00
2018-11-10T02:59:49.870Z,8.10
2018-11-10T03:02:19.276Z,8.00
2018-11-10T03:04:48.952Z,8.00
2018-11-10T03:07:18.472Z,8.00
2018-11-10T03:09:48.790Z,8.00
2018-11-10T03:12:19.904Z,8.00
2018-11-10T03:14:51.141Z,8.00
2018-11-10T03:17:21.775Z,8.00
2018-11-10T03:19:52.278Z,8.00
2018-11-10T03:22:25.372Z,8.00
2018-11-10T03:24:56.654Z,8.00
2018-11-10T03:27:27.782Z,8.00
2018-11-10T03:29:57.269Z,8.00
2018-11-10T03:32:26.992Z,8.00
2018-11-10T03:34:56.823Z,8.00
2018-11-10T03:37:28.365Z,8.00
2018-11-10T03:39:58.889Z,8.00
2018-11-10T03:42:32.870Z,8.00
2018-11-10T03:45:06.007Z,8.00
2018-11-10T03:47:48.171Z,7.90
2018-11-10T03:50:28.052Z,7.90
2018-11-10T03:56:10.097Z,7.90
2018-11-10T03:58:41.848Z,7.90
2018-11-10T04:01:16.111Z,7.90
2018-11-10T04:03:48.154Z,7.90
2018-11-10T04:06:20.698Z,7.90
2018-11-10T04:08:53.840Z,7.90
2018-11-10T04:11:25.013Z,7.80
2018-11-10T04:13:55.453Z,7.80
2018-11-10T04:19:40.922Z,7.80
2018-11-10T04:22:11.150Z,7.80
2018-11-10T04:24:40.931Z,7.80
2018-11-10T04:27:14.811Z,7.80
2018-11-10T04:29:46.929Z,7.80
2018-11-10T04:32:18.409Z,7.80
2018-11-10T04:34:49.626Z,7.80
2018-11-10T04:37:23.870Z,7.80
2018-11-10T04:39:56.375Z,7.80
2018-11-10T04:42:33.292Z,7.80
2018-11-10T04:45:07.830Z,7.80
2018-11-10T04:47:41.823Z,7.80
2018-11-10T04:50:14.302Z,7.70
2018-11-10T04:52:47.393Z,7.80
2018-11-10T04:55:18.356Z,7.80
2018-11-10T04:57:50.886Z,7.80
2018-11-10T05:00:22.253Z,7.70
2018-11-10T05:02:52.215Z,7.70
2018-11-10T05:06:39.283Z,7.70
2018-11-10T05:12:07.234Z,7.70
2018-11-10T05:14:38.316Z,7.80
2018-11-10T05:17:08.839Z,7.80
2018-11-10T05:19:38.214Z,7.80
2018-11-10T05:22:08.607Z,7.80
2018-11-10T05:24:39.523Z,7.80
2018-11-10T05:27:10.204Z,7.80
2018-11-10T05:29:40.120Z,7.80
2018-11-10T05:32:11.739Z,7.80
2018-11-10T05:34:43.623Z,7.80
2018-11-10T05:37:13.940Z,7.80
2018-11-10T05:39:45.071Z,7.80
2018-11-10T05:42:16.194Z,7.70
2018-11-10T05:44:46.515Z,7.80
2018-11-10T05:47:20.459Z,7.80
2018-11-10T05:50:09.066Z,7.80
2018-11-10T05:52:42.820Z,7.80
2018-11-10T05:55:14.606Z,7.80
2018-11-10T05:57:45.059Z,7.70
2018-11-10T06:00:15.100Z,7.70
2018-11-10T06:02:46.158Z,7.70
2018-11-10T06:05:17.832Z,7.70
2018-11-10T06:07:48.352Z,7.70
2018-11-10T06:10:17.865Z,7.70
2018-11-10T06:12:47.071Z,7.70
2018-11-10T06:15:17.406Z,7.70
2018-11-10T06:17:46.905Z,7.70
2018-11-10T06:20:16.690Z,7.70
2018-11-10T06:22:46.968Z,7.60
2018-11-10T06:25:16.523Z,7.60
2018-11-10T06:27:49.274Z,7.60
2018-11-10T06:30:26.656Z,7.60
2018-11-10T06:32:57.686Z,7.50
2018-11-10T06:35:27.469Z,7.50
2018-11-10T06:37:57.300Z,7.50
2018-11-10T06:40:26.474Z,7.50
2018-11-10T06:42:56.799Z,7.60
2018-11-10T06:45:26.006Z,7.60
2018-11-10T06:47:55.736Z,7.60
2018-11-10T06:50:25.649Z,7.60
2018-11-10T06:52:54.820Z,7.60
2018-11-10T06:55:24.514Z,7.60
2018-11-10T06:57:53.961Z,7.60
2018-11-10T07:00:25.913Z,7.60
2018-11-10T07:02:55.016Z,7.60
2018-11-10T07:05:24.083Z,7.60
2018-11-10T07:07:53.300Z,7.60
2018-11-10T07:10:23.527Z,7.70
2018-11-10T07:12:53.747Z,7.60
2018-11-10T07:15:23.968Z,7.70
2018-11-10T07:17:53.365Z,7.70
2018-11-10T07:20:23.346Z,7.70
2018-11-10T07:22:54.768Z,7.70
2018-11-10T07:25:24.491Z,7.70
2018-11-10T07:27:53.948Z,7.70
2018-11-10T07:30:23.185Z,7.70
2018-11-10T07:32:52.725Z,7.70
2018-11-10T07:35:21.839Z,7.70
2018-11-10T07:37:51.283Z,7.70
2018-11-10T07:40:20.715Z,7.70
2018-11-10T07:42:50.000Z,7.70
2018-11-10T07:45:19.464Z,7.80
2018-11-10T07:47:49.265Z,7.80
2018-11-10T07:50:19.371Z,7.80
2018-11-10T07:52:48.737Z,7.80
2018-11-10T07:55:18.378Z,7.90
2018-11-10T07:57:48.054Z,7.90
2018-11-10T08:00:37.292Z,7.90
2018-11-10T08:03:08.103Z,7.90
2018-11-10T08:05:39.191Z,7.90
2018-11-10T08:08:09.765Z,7.90
2018-11-10T08:10:44.310Z,8.00
2018-11-10T08:13:14.625Z,8.00
2018-11-10T08:15:44.678Z,8.00
2018-11-10T08:18:13.789Z,8.00
2018-11-10T08:20:43.299Z,8.10
2018-11-10T08:23:14.010Z,8.10
2018-11-10T08:25:44.025Z,8.20
2018-11-10T08:28:18.915Z,8.20
2018-11-10T08:30:48.764Z,8.30
2018-11-10T08:33:19.686Z,8.30
2018-11-10T08:35:49.167Z,8.30
2018-11-10T08:38:18.196Z,8.30
2018-11-10T08:40:49.098Z,8.40
2018-11-10T08:43:19.787Z,8.40
2018-11-10T08:45:49.234Z,8.40
2018-11-10T08:54:04.309Z,8.30
2018-11-10T08:56:37.872Z,8.30
2018-11-10T08:59:11.900Z,8.30
2018-11-10T09:01:42.744Z,8.30
2018-11-10T09:04:16.571Z,8.30
2018-11-10T09:06:46.920Z,8.20
2018-11-10T09:09:23.451Z,8.20
2018-11-10T09:11:54.824Z,8.20
2018-11-10T09:14:41.504Z,8.20
2018-11-10T09:17:15.243Z,8.20
2018-11-10T09:19:49.600Z,8.20
2018-11-10T09:22:22.810Z,8.20
2018-11-10T09:24:58.704Z,8.20
2018-11-10T09:27:29.129Z,8.20
2018-11-10T11:53:18.252Z,8.30
2018-11-10T11:55:46.833Z,8.30
2018-11-10T11:58:15.459Z,8.30
2018-11-10T12:00:44.066Z,8.40
2018-11-10T12:03:12.638Z,8.50
2018-11-10T12:05:41.256Z,8.60
2018-11-10T12:08:10.198Z,8.60
2018-11-10T12:10:38.773Z,8.60
2018-11-10T12:13:07.478Z,8.60
2018-11-10T12:15:36.300Z,8.60
2018-11-10T12:18:04.952Z,8.60
2018-11-10T12:20:33.559Z,8.70
2018-11-10T12:23:02.373Z,8.70
2018-11-10T12:25:30.938Z,8.70
2018-11-10T12:27:59.505Z,8.80
2018-11-10T12:30:28.121Z,8.80
2018-11-10T12:32:56.691Z,8.80
2018-11-10T12:35:25.476Z,8.80
2018-11-10T12:37:54.422Z,8.70
2018-11-10T12:40:23.013Z,8.70
2018-11-10T12:42:51.656Z,8.70
2018-11-10T12:45:20.269Z,8.70
2018-11-10T12:47:48.858Z,8.70
2018-11-10T12:50:17.423Z,8.60
2018-11-10T12:52:46.625Z,8.60
2018-11-10T12:55:16.028Z,8.60
2018-11-10T12:57:45.543Z,8.50
2018-11-10T13:00:16.037Z,8.50
2018-11-10T13:02:45.098Z,8.40
2018-11-10T13:05:13.933Z,8.40
2018-11-10T13:07:44.678Z,8.30
2018-11-10T13:10:13.358Z,8.30
2018-11-10T13:12:42.758Z,8.30
2018-11-10T13:15:11.728Z,8.30
2018-11-10T13:17:40.573Z,8.30
2018-11-10T13:20:11.667Z,8.20
2018-11-10T13:22:40.284Z,8.20
2018-11-10T13:25:09.875Z,8.20
2018-11-10T13:27:38.532Z,8.20
2018-11-10T13:30:09.160Z,8.20
2018-11-10T13:32:37.805Z,8.10
2018-11-10T13:35:07.439Z,8.10
2018-11-10T13:37:36.392Z,8.10
2018-11-10T13:40:05.281Z,8.10
2018-11-10T13:42:34.054Z,8.20
2018-11-10T13:45:02.994Z,8.10
2018-11-10T13:47:31.937Z,8.10
2018-11-10T13:50:01.108Z,8.10
2018-11-10T13:52:29.996Z,8.10
2018-11-10T13:54:58.322Z,8.10
2018-11-10T13:57:26.929Z,8.10
2018-11-10T13:59:55.605Z,8.10
2018-11-10T14:02:24.331Z,8.10
2018-11-10T14:04:52.915Z,8.10
2018-11-10T14:07:21.536Z,8.10
2018-11-10T14:09:50.141Z,8.10
2018-11-10T14:12:18.807Z,8.00
2018-11-10T14:14:47.498Z,8.00
2018-11-10T14:17:16.241Z,8.00
2018-11-10T14:19:44.822Z,8.00
2018-11-10T14:22:13.683Z,8.00
2018-11-10T14:24:42.282Z,8.00
2018-11-10T14:27:10.917Z,7.90
2018-11-10T14:29:39.830Z,8.00
2018-11-10T14:32:08.405Z,7.90
2018-11-10T14:34:37.030Z,7.90
2018-11-10T14:37:06.457Z,7.90
2018-11-10T14:39:35.054Z,7.80
2018-11-10T14:42:03.658Z,7.80
2018-11-10T14:44:32.430Z,7.70
2018-11-10T14:47:01.089Z,7.70
2018-11-10T14:49:29.664Z,7.70
2018-11-10T14:51:58.335Z,7.70
2018-11-10T14:54:26.910Z,7.70
2018-11-10T14:56:55.476Z,7.70
2018-11-10T14:59:24.438Z,7.70
2018-11-10T15:01:53.021Z,7.60
2018-11-10T15:04:21.688Z,7.60
2018-11-10T15:06:50.429Z,7.60
2018-11-10T15:09:19.029Z,7.60
2018-11-10T15:11:47.742Z,7.60
2018-11-10T15:14:16.643Z,7.70
2018-11-10T15:16:45.205Z,7.70
2018-11-10T15:19:13.802Z,7.70
2018-11-10T15:21:42.418Z,7.70
2018-11-10T15:24:11.030Z,7.70
2018-11-10T15:26:39.637Z,7.70
2018-11-10T15:29:08.577Z,7.70
2018-11-10T15:31:37.162Z,7.70
2018-11-10T15:34:06.125Z,7.60
2018-11-10T15:36:35.053Z,7.60
2018-11-10T15:39:05.059Z,7.60
2018-11-10T15:41:33.629Z,7.60
2018-11-10T15:44:02.358Z,7.50
2018-11-10T15:46:30.946Z,7.50
2018-11-10T15:48:59.547Z,7.50
2018-11-10T15:51:28.306Z,7.50
2018-11-10T15:53:56.883Z,7.50
2018-11-10T15:56:25.489Z,7.50
2018-11-10T15:58:54.471Z,7.50
2018-11-10T16:01:23.090Z,7.50
2018-11-10T16:03:51.670Z,7.40
2018-11-10T16:06:20.265Z,7.40
2018-11-10T16:08:48.882Z,7.40
2018-11-10T16:11:17.461Z,7.30
2018-11-10T16:13:46.510Z,7.30
2018-11-10T16:16:15.091Z,7.30
2018-11-10T16:18:43.670Z,7.30
2018-11-10T16:21:12.282Z,7.30
2018-11-10T16:23:40.854Z,7.20
2018-11-10T16:26:09.498Z,7.30
2018-11-10T16:28:38.337Z,7.30
2018-11-10T16:31:06.978Z,7.30
2018-11-10T16:33:35.574Z,7.30
2018-11-10T16:36:04.697Z,7.30
2018-11-10T16:38:33.337Z,7.30
2018-11-10T16:41:01.931Z,7.30
2018-11-10T16:43:30.717Z,7.30
2018-11-10T16:45:59.322Z,7.20
2018-11-10T16:48:27.951Z,7.20
2018-11-10T16:50:56.902Z,7.20
2018-11-10T16:53:25.586Z,7.20
2018-11-10T16:55:54.178Z,7.20
2018-11-10T16:58:23.323Z,7.20
2018-11-10T17:00:51.942Z,7.20
2018-11-10T17:03:20.553Z,7.20
2018-11-10T17:05:49.530Z,7.20
2018-11-10T17:08:18.193Z,7.20
2018-11-10T17:10:46.792Z,7.20
2018-11-10T17:13:15.737Z,7.20
2018-11-10T17:15:44.398Z,7.20
2018-11-10T17:18:12.977Z,7.20
2018-11-10T17:20:42.165Z,7.20
2018-11-10T17:23:10.722Z,7.20
2018-11-10T17:25:39.300Z,7.30
2018-11-10T17:28:07.941Z,7.30
2018-11-10T17:30:36.738Z,7.30
2018-11-10T17:33:05.397Z,7.30
2018-11-10T17:35:34.275Z,7.30
2018-11-10T17:38:02.897Z,7.30
2018-11-10T17:40:31.487Z,7.40
2018-11-10T17:43:00.086Z,7.40
2018-11-10T17:45:28.702Z,7.40
2018-11-10T17:47:57.265Z,7.40
2018-11-10T17:50:25.929Z,7.40
2018-11-10T17:52:54.533Z,7.40
2018-11-10T17:55:23.102Z,7.40
2018-11-10T17:57:52.228Z,7.40
2018-11-10T18:00:20.936Z,7.40
2018-11-10T18:02:49.527Z,7.40
2018-11-10T18:05:18.414Z,7.50
2018-11-10T18:07:47.050Z,7.50
2018-11-10T18:10:17.098Z,7.50
2018-11-10T18:12:46.298Z,7.50
2018-11-10T18:15:15.257Z,7.50
2018-11-10T18:17:44.317Z,7.50
2018-11-10T18:20:14.497Z,7.50
2018-11-10T18:22:43.558Z,7.50
2018-11-10T18:25:12.320Z,7.50
2018-11-10T18:27:41.334Z,7.50
2018-11-10T18:30:11.842Z,7.40
2018-11-10T18:32:40.640Z,7.40
2018-11-10T18:35:09.953Z,7.50
2018-11-10T18:37:38.577Z,7.40
2018-11-10T18:40:07.707Z,7.50
2018-11-10T18:42:36.666Z,7.50
2018-11-10T18:45:05.958Z,7.50
2018-11-10T18:47:36.211Z,7.50
2018-11-10T18:50:06.582Z,7.50
2018-11-10T18:52:35.165Z,7.50
2018-11-10T18:55:03.834Z,7.60
2018-11-10T18:57:33.076Z,7.60
2018-11-10T19:00:01.475Z,7.60
2018-11-10T19:02:30.062Z,7.60
2018-11-10T19:04:58.678Z,7.60
2018-11-10T19:07:27.269Z,7.60
2018-11-10T19:09:55.839Z,7.60
2018-11-10T19:12:24.843Z,7.60
2018-11-10T19:14:53.434Z,7.70
2018-11-10T19:17:22.002Z,7.60
2018-11-10T19:19:51.041Z,7.70
2018-11-10T19:22:19.606Z,7.70
2018-11-10T19:24:48.170Z,7.70
2018-11-10T19:27:16.749Z,7.70
2018-11-10T19:29:45.326Z,7.70
2018-11-10T19:32:14.184Z,7.80
2018-11-10T19:34:42.929Z,7.80
2018-11-10T19:37:11.498Z,7.80
2018-11-10T19:39:40.080Z,7.80
2018-11-10T19:42:08.706Z,7.80
2018-11-10T19:44:37.394Z,7.80
2018-11-10T19:47:06.230Z,7.80
2018-11-10T19:49:34.822Z,7.90
2018-11-10T19:52:03.517Z,7.90
2018-11-10T19:54:32.130Z,7.90
2018-11-10T19:57:00.796Z,7.90
2018-11-10T19:59:29.364Z,7.90
2018-11-10T20:01:57.966Z,7.90
2018-11-10T20:04:26.570Z,7.90
2018-11-10T20:06:55.148Z,7.90
2018-11-10T20:09:23.774Z,7.90
2018-11-10T20:11:52.382Z,7.90
2018-11-10T20:14:21.095Z,7.90
2018-11-10T20:16:49.651Z,7.90
2018-11-10T20:19:18.715Z,8.00
2018-11-10T20:21:47.342Z,7.90
2018-11-10T20:24:16.286Z,7.90
2018-11-10T20:26:45.054Z,7.90
2018-11-10T20:29:13.679Z,7.90
2018-11-10T20:31:42.302Z,7.90
2018-11-10T20:34:11.036Z,7.90
2018-11-10T20:36:40.342Z,7.90
2018-11-10T20:39:10.042Z,7.90
2018-11-10T20:41:39.513Z,7.90
2018-11-10T20:44:08.750Z,7.90
2018-11-10T20:46:37.377Z,8.00
2018-11-10T20:49:06.354Z,8.00
2018-11-10T20:51:34.934Z,8.00
2018-11-10T20:54:03.832Z,8.00
2018-11-10T20:56:33.024Z,8.00
2018-11-10T20:59:01.957Z,8.10
2018-11-10T21:01:30.832Z,8.10
2018-11-10T21:04:00.454Z,8.10
2018-11-10T21:06:29.242Z,8.10
2018-11-10T21:08:57.913Z,8.00
2018-11-10T21:11:26.925Z,8.10
2018-11-10T21:13:55.842Z,8.10
2018-11-10T21:16:24.703Z,8.10
2018-11-10T21:18:53.886Z,8.10
2018-11-10T21:21:22.831Z,8.10
2018-11-10T21:23:51.807Z,8.10
2018-11-10T21:26:21.138Z,8.10
2018-11-10T21:28:49.899Z,8.20
2018-11-10T21:31:18.794Z,8.20
2018-11-10T21:33:48.353Z,8.10
2018-11-10T21:36:17.431Z,8.10
2018-11-10T21:38:46.077Z,8.10
2018-11-10T21:41:14.870Z,8.10
2018-11-10T21:43:43.992Z,8.10
2018-11-10T21:46:13.124Z,8.10
2018-11-10T21:48:41.995Z,8.10
2018-11-10T21:51:10.909Z,8.10
2018-11-10T21:53:39.559Z,8.10
2018-11-10T21:56:08.266Z,8.10
2018-11-10T21:58:37.166Z,8.10
2018-11-10T22:01:06.241Z,8.10
2018-11-10T22:03:35.575Z,8.10
2018-11-10T22:06:04.500Z,8.20
2018-11-10T22:08:33.070Z,8.20
2018-11-10T22:11:01.975Z,8.20
2018-11-10T22:13:30.865Z,8.20
2018-11-10T22:15:59.836Z,8.20
2018-11-10T22:18:28.757Z,8.20
2018-11-10T22:20:57.659Z,8.20
2018-11-10T22:23:26.542Z,8.20
2018-11-10T22:25:55.592Z,8.20
2018-11-10T22:28:24.747Z,8.20
2018-11-10T22:30:53.453Z,8.20
2018-11-10T22:33:22.417Z,8.20
2018-11-10T22:35:51.649Z,8.30
2018-11-10T22:38:20.583Z,8.30
2018-11-10T22:40:49.624Z,8.30
2018-11-10T22:43:18.200Z,8.30
2018-11-10T22:45:46.828Z,8.30
2018-11-10T22:48:15.664Z,8.30
2018-11-10T22:50:44.252Z,8.30
2018-11-10T22:53:12.833Z,8.40
2018-11-10T22:55:41.452Z,8.30
2018-11-10T22:58:10.069Z,8.30
2018-11-10T23:00:43.057Z,8.30
2018-11-10T23:03:11.974Z,8.40
2018-11-10T23:05:40.738Z,8.40
2018-11-10T23:08:09.725Z,8.40
2018-11-10T23:10:38.372Z,8.50
2018-11-10T23:13:06.986Z,8.50
2018-11-10T23:15:35.800Z,8.50
2018-11-10T23:18:04.437Z,8.50
2018-11-10T23:20:33.034Z,8.50
2018-11-10T23:23:01.752Z,8.50
2018-11-10T23:25:30.295Z,8.50
2018-11-10T23:27:58.930Z,8.50
2018-11-10T23:30:27.929Z,8.50
2018-11-10T23:32:56.521Z,8.50
2018-11-10T23:35:25.146Z,8.50
2018-11-10T23:37:53.746Z,8.50
2018-11-10T23:40:22.328Z,8.50
2018-11-10T23:42:50.910Z,8.50
2018-11-10T23:45:19.763Z,8.50
2018-11-10T23:47:48.401Z,8.60
2018-11-10T23:50:18.319Z,8.50
2018-11-10T23:52:47.031Z,8.60
2018-11-10T23:55:16.397Z,8.60
2018-11-10T23:57:45.049Z,8.50
